createdAt,value
2023-10-26T00:01:23.168Z,9.89
2023-10-26T00:03:50.288Z,9.90
2023-10-26T00:06:17.429Z,9.89
2023-10-26T00:08:44.504Z,9.88
2023-10-26T00:11:11.545Z,9.90
2023-10-26T00:13:38.568Z,9.92
2023-10-26T00:16:05.992Z,9.92
2023-10-26T00:18:33.160Z,9.93
2023-10-26T00:21:01.538Z,9.94
2023-10-26T00:23:28.982Z,9.94
2023-10-26T00:25:56.210Z,9.93
2023-10-26T00:28:23.310Z,9.89
2023-10-26T00:30:50.354Z,9.91
2023-10-26T00:33:17.427Z,9.89
2023-10-26T00:35:44.504Z,9.89
2023-10-26T00:38:11.967Z,9.90
2023-10-26T00:40:39.098Z,9.90
2023-10-26T00:43:06.125Z,9.89
2023-10-26T00:45:36.666Z,9.87
2023-10-26T00:48:06.617Z,9.84
2023-10-26T00:50:33.980Z,9.80
2023-10-26T00:53:01.737Z,9.76
2023-10-26T00:55:30.221Z,9.73
2023-10-26T00:57:57.272Z,9.69
2023-10-26T01:00:25.225Z,9.63
2023-10-26T01:02:52.445Z,9.62
2023-10-26T01:05:19.603Z,9.58
2023-10-26T01:07:48.253Z,9.56
2023-10-26T01:10:15.620Z,9.55
2023-10-26T01:12:42.939Z,9.54
2023-10-26T01:15:10.347Z,9.53
2023-10-26T01:17:37.510Z,9.48
2023-10-26T01:20:07.014Z,9.40
2023-10-26T01:22:34.108Z,9.35
2023-10-26T01:25:01.170Z,9.28
2023-10-26T01:27:28.242Z,9.23
2023-10-26T01:29:56.385Z,9.19
2023-10-26T01:32:27.826Z,9.16
2023-10-26T01:34:54.965Z,9.15
2023-10-26T01:37:22.188Z,9.14
2023-10-26T01:39:49.220Z,9.15
2023-10-26T01:42:16.308Z,9.14
2023-10-26T01:44:45.271Z,9.15
2023-10-26T01:47:14.172Z,9.16
2023-10-26T01:49:41.507Z,9.18
2023-10-26T01:52:08.532Z,9.19
2023-10-26T01:54:35.554Z,9.19
2023-10-26T01:57:05.556Z,9.22
2023-10-26T01:59:32.943Z,9.25
2023-10-26T02:02:00.009Z,9.25
2023-10-26T02:04:27.049Z,9.24
2023-10-26T02:06:54.206Z,9.24
2023-10-26T02:09:21.312Z,9.24
2023-10-26T02:11:48.350Z,9.26
2023-10-26T02:14:15.444Z,9.25
2023-10-26T02:16:42.442Z,9.20
2023-10-26T02:19:09.429Z,9.19
2023-10-26T02:21:36.651Z,9.16
2023-10-26T02:24:04.090Z,9.12
2023-10-26T02:26:31.108Z,9.13
2023-10-26T02:28:58.066Z,9.13
2023-10-26T02:31:25.098Z,9.12
2023-10-26T02:33:52.073Z,9.11
2023-10-26T02:36:19.148Z,9.08
2023-10-26T02:38:46.225Z,9.06
2023-10-26T02:41:13.330Z,9.05
2023-10-26T02:43:41.237Z,9.02
2023-10-26T02:46:10.249Z,9.00
2023-10-26T02:48:38.666Z,9.01
2023-10-26T02:51:07.003Z,9.00
2023-10-26T02:53:34.805Z,8.97
2023-10-26T02:56:01.883Z,8.95
2023-10-26T02:58:28.921Z,8.94
2023-10-26T03:00:56.447Z,8.94
2023-10-26T03:03:23.883Z,8.96
2023-10-26T03:05:52.636Z,8.98
2023-10-26T03:08:21.047Z,8.96
2023-10-26T03:10:48.154Z,8.97
2023-10-26T03:13:15.136Z,8.96
2023-10-26T03:15:42.127Z,8.96
2023-10-26T03:18:09.402Z,8.93
2023-10-26T03:20:36.451Z,8.93
2023-10-26T03:23:03.469Z,8.91
2023-10-26T03:25:30.519Z,8.92
2023-10-26T03:27:57.652Z,8.93
2023-10-26T03:30:24.828Z,8.96
2023-10-26T03:32:52.133Z,8.98
2023-10-26T03:35:19.270Z,8.98
2023-10-26T03:37:46.363Z,8.95
2023-10-26T03:40:15.747Z,8.94
2023-10-26T03:42:43.317Z,8.91
2023-10-26T03:45:11.354Z,8.90
2023-10-26T03:47:40.127Z,8.88
2023-10-26T03:50:08.469Z,8.83
2023-10-26T03:52:35.939Z,8.80
2023-10-26T03:55:05.431Z,8.78
2023-10-26T03:57:35.247Z,8.76
2023-10-26T04:00:05.059Z,8.72
2023-10-26T04:02:38.897Z,8.70
2023-10-26T04:05:06.098Z,8.66
2023-10-26T04:07:34.662Z,8.64
2023-10-26T04:10:02.892Z,8.63
2023-10-26T04:12:29.865Z,8.60
2023-10-26T04:14:56.909Z,8.58
2023-10-26T04:17:23.982Z,8.58
2023-10-26T04:19:51.054Z,8.60
2023-10-26T04:22:18.032Z,8.60
2023-10-26T04:24:45.196Z,8.65
2023-10-26T04:27:12.444Z,8.65
2023-10-26T04:29:39.672Z,8.68
2023-10-26T04:32:07.907Z,8.72
2023-10-26T04:34:35.156Z,8.74
2023-10-26T04:37:02.199Z,8.75
2023-10-26T04:39:29.331Z,8.76
2023-10-26T04:41:56.438Z,8.74
2023-10-26T04:44:23.553Z,8.72
2023-10-26T04:46:50.548Z,8.74
2023-10-26T04:49:17.499Z,8.72
2023-10-26T04:51:44.541Z,8.71
2023-10-26T04:54:11.575Z,8.70
2023-10-26T04:56:38.581Z,8.70
2023-10-26T04:59:05.770Z,8.70
2023-10-26T05:01:32.751Z,8.70
2023-10-26T05:03:59.903Z,8.74
2023-10-26T05:06:27.190Z,8.76
2023-10-26T05:08:54.441Z,8.73
2023-10-26T05:11:21.808Z,8.69
2023-10-26T05:13:50.008Z,8.71
2023-10-26T05:16:17.004Z,8.75
2023-10-26T05:18:44.043Z,8.77
2023-10-26T05:21:11.250Z,8.77
2023-10-26T05:23:40.891Z,8.78
2023-10-26T05:26:07.944Z,8.77
2023-10-26T05:28:35.014Z,8.76
2023-10-26T05:31:02.114Z,8.70
2023-10-26T05:33:29.150Z,8.63
2023-10-26T05:35:56.230Z,8.54
2023-10-26T05:38:23.507Z,8.55
2023-10-26T05:40:55.136Z,8.55
2023-10-26T05:43:25.523Z,8.55
2023-10-26T05:45:53.735Z,8.57
2023-10-26T05:48:20.958Z,8.54
2023-10-26T05:50:47.968Z,8.53
2023-10-26T05:53:14.966Z,8.52
2023-10-26T05:55:42.072Z,8.47
2023-10-26T05:58:11.908Z,8.47
2023-10-26T06:00:39.756Z,8.44
2023-10-26T06:03:06.990Z,8.45
2023-10-26T06:05:34.090Z,8.43
2023-10-26T06:08:01.121Z,8.42
2023-10-26T06:10:28.300Z,8.40
2023-10-26T06:12:55.310Z,8.38
2023-10-26T06:15:22.491Z,8.39
2023-10-26T06:17:49.686Z,8.42
2023-10-26T06:20:18.000Z,8.42
2023-10-26T06:22:45.107Z,8.43
2023-10-26T06:25:12.329Z,8.45
2023-10-26T06:27:39.308Z,8.43
2023-10-26T06:30:07.725Z,8.42
2023-10-26T06:32:36.615Z,8.42
2023-10-26T06:35:03.831Z,8.40
2023-10-26T06:37:30.850Z,8.42
2023-10-26T06:39:57.864Z,8.42
2023-10-26T06:42:25.172Z,8.36
2023-10-26T06:44:59.538Z,8.31
2023-10-26T06:47:26.710Z,8.29
2023-10-26T06:49:53.812Z,8.33
2023-10-26T06:52:20.826Z,8.36
2023-10-26T06:54:51.855Z,8.40
2023-10-26T06:57:18.932Z,8.43
2023-10-26T06:59:46.722Z,8.44
2023-10-26T07:02:13.877Z,8.48
2023-10-26T07:04:41.142Z,8.49
2023-10-26T07:07:09.320Z,8.48
2023-10-26T07:09:38.133Z,8.46
2023-10-26T07:12:05.813Z,8.45
2023-10-26T07:14:32.975Z,8.47
2023-10-26T07:17:00.050Z,8.51
2023-10-26T07:19:27.046Z,8.59
2023-10-26T07:21:54.323Z,8.63
2023-10-26T07:24:21.354Z,8.66
2023-10-26T07:26:51.325Z,8.65
2023-10-26T07:29:18.612Z,8.67
2023-10-26T07:31:47.846Z,8.68
2023-10-26T07:34:15.682Z,8.68
2023-10-26T07:36:43.296Z,8.69
2023-10-26T07:39:44.644Z,8.72
2023-10-26T07:42:06.317Z,8.73
2023-10-26T07:44:36.947Z,8.74
2023-10-26T07:47:05.056Z,8.75
2023-10-26T07:49:32.424Z,8.71
2023-10-26T07:51:59.410Z,8.74
2023-10-26T07:54:26.515Z,8.77
2023-10-26T07:56:53.585Z,8.81
2023-10-26T07:59:20.615Z,8.86
2023-10-26T08:01:49.187Z,8.89
2023-10-26T08:04:16.338Z,8.88
2023-10-26T08:06:43.505Z,8.89
2023-10-26T08:09:10.612Z,8.94
2023-10-26T08:11:38.384Z,8.98
2023-10-26T08:14:35.618Z,9.06
2023-10-26T08:16:53.590Z,9.13
2023-10-26T08:19:21.011Z,9.14
2023-10-26T08:21:48.046Z,9.14
2023-10-26T08:24:16.954Z,9.13
2023-10-26T08:26:44.213Z,9.12
2023-10-26T08:29:18.426Z,9.14
2023-10-26T08:31:45.868Z,9.12
2023-10-26T08:34:13.055Z,9.12
2023-10-26T08:36:42.155Z,9.11
2023-10-26T08:39:11.804Z,9.06
2023-10-26T08:41:38.825Z,9.00
2023-10-26T08:44:06.549Z,8.97
2023-10-26T08:46:33.786Z,8.98
2023-10-26T08:49:03.576Z,9.01
2023-10-26T08:51:30.646Z,9.07
2023-10-26T08:53:58.473Z,9.09
2023-10-26T08:56:25.647Z,9.14
2023-10-26T08:59:00.344Z,9.19
2023-10-26T09:01:27.476Z,9.20
2023-10-26T09:03:54.660Z,9.23
2023-10-26T09:06:21.738Z,9.24
2023-10-26T09:09:02.727Z,9.19
2023-10-26T09:11:29.884Z,9.13
2023-10-26T09:14:17.327Z,9.12
2023-10-26T09:16:46.741Z,9.13
2023-10-26T09:19:19.390Z,9.13
2023-10-26T09:21:56.373Z,9.14
2023-10-26T09:24:26.377Z,9.13
2023-10-26T09:27:04.397Z,9.14
2023-10-26T09:29:45.827Z,9.14
2023-10-26T09:32:13.350Z,9.17
2023-10-26T09:34:43.322Z,9.22
2023-10-26T09:37:12.779Z,9.25
2023-10-26T09:39:42.733Z,9.29
2023-10-26T09:42:13.061Z,9.35
2023-10-26T09:44:40.516Z,9.39
2023-10-26T09:47:08.490Z,9.41
2023-10-26T09:49:35.734Z,9.50
2023-10-26T09:52:03.166Z,9.45
2023-10-26T09:54:37.272Z,9.45
2023-10-26T09:57:31.323Z,9.50
2023-10-26T10:00:01.615Z,9.59
2023-10-26T10:02:28.777Z,9.54
2023-10-26T10:04:55.953Z,9.49
2023-10-26T10:07:46.261Z,9.44
2023-10-26T10:10:14.912Z,9.41
2023-10-26T10:12:43.808Z,9.44
2023-10-26T10:17:45.580Z,9.53
2023-10-26T10:20:15.658Z,9.57
2023-10-26T10:22:45.858Z,9.60
2023-10-26T10:25:14.309Z,9.63
2023-10-26T10:28:01.962Z,9.67
2023-10-26T10:30:47.097Z,9.75
2023-10-26T10:33:26.574Z,9.79
2023-10-26T10:36:05.580Z,9.85
2023-10-26T10:38:33.394Z,9.87
2023-10-26T10:41:00.370Z,9.89
2023-10-26T10:43:37.139Z,9.93
2023-10-26T10:46:11.503Z,9.94
2023-10-26T10:48:55.687Z,9.95
2023-10-26T10:51:23.575Z,10.05
2023-10-26T10:53:53.719Z,10.08
2023-10-26T10:56:20.853Z,10.18
2023-10-26T10:58:47.808Z,10.34
2023-10-26T11:01:21.877Z,10.47
2023-10-26T11:03:50.297Z,10.59
2023-10-26T11:06:19.683Z,10.60
2023-10-26T11:08:46.773Z,10.55
2023-10-26T11:11:34.722Z,10.55
2023-10-26T11:14:11.528Z,10.49
2023-10-26T11:16:42.050Z,10.43
2023-10-26T11:19:09.086Z,10.38
2023-10-26T11:21:36.521Z,10.40
2023-10-26T11:24:03.823Z,10.44
2023-10-26T11:26:30.886Z,10.46
2023-10-26T11:28:57.903Z,10.44
2023-10-26T11:31:42.758Z,10.45
2023-10-26T11:34:11.651Z,10.42
2023-10-26T11:36:39.453Z,10.43
2023-10-26T11:39:07.082Z,10.38
2023-10-26T11:41:34.881Z,10.41
2023-10-26T11:44:02.647Z,10.42
2023-10-26T11:46:38.066Z,10.46
2023-10-26T11:49:06.591Z,10.53
2023-10-26T11:51:36.086Z,10.57
2023-10-26T11:54:13.279Z,10.65
2023-10-26T11:56:40.374Z,10.73
2023-10-26T11:59:07.413Z,10.79
2023-10-26T12:01:35.201Z,10.86
2023-10-26T12:04:02.344Z,10.87
2023-10-26T12:06:32.445Z,10.93
2023-10-26T12:08:59.523Z,11.01
2023-10-26T12:11:26.740Z,11.11
2023-10-26T12:13:53.731Z,11.20
2023-10-26T12:16:20.820Z,11.28
2023-10-26T12:18:47.904Z,11.43
2023-10-26T12:21:16.848Z,11.65
2023-10-26T12:23:43.871Z,11.68
2023-10-26T12:26:10.804Z,11.73
2023-10-26T12:28:37.798Z,11.84
2023-10-26T12:31:04.897Z,11.80
2023-10-26T12:33:31.979Z,11.76
2023-10-26T12:35:58.998Z,11.78
2023-10-26T12:38:26.075Z,11.78
2023-10-26T12:40:53.111Z,11.72
2023-10-26T12:43:20.114Z,11.66
2023-10-26T12:45:47.157Z,11.68
2023-10-26T12:48:14.192Z,11.69
2023-10-26T12:50:41.284Z,11.71
2023-10-26T12:53:08.259Z,11.75
2023-10-26T12:55:35.705Z,11.72
2023-10-26T12:58:02.838Z,11.68
2023-10-26T13:00:31.519Z,11.72
2023-10-26T13:02:58.860Z,11.75
2023-10-26T13:05:25.917Z,11.80
2023-10-26T13:07:53.473Z,11.86
2023-10-26T13:10:20.590Z,11.91
2023-10-26T13:12:48.413Z,11.95
2023-10-26T13:15:19.343Z,11.93
2023-10-26T13:17:49.227Z,11.90
2023-10-26T13:20:16.369Z,11.84
2023-10-26T13:22:43.351Z,11.83
2023-10-26T13:25:10.373Z,11.89
2023-10-26T13:27:37.468Z,12.05
2023-10-26T13:30:05.374Z,12.27
2023-10-26T13:32:32.435Z,12.51
2023-10-26T13:34:59.389Z,12.79
2023-10-26T13:37:26.507Z,12.97
2023-10-26T13:39:53.550Z,12.98
2023-10-26T13:42:20.667Z,13.16
2023-10-26T13:44:47.596Z,13.27
2023-10-26T13:47:14.581Z,13.22
2023-10-26T13:49:41.951Z,13.04
2023-10-26T13:52:09.730Z,12.94
2023-10-26T13:54:37.260Z,12.88
2023-10-26T13:57:04.837Z,12.71
2023-10-26T13:59:32.021Z,12.58
2023-10-26T14:01:59.116Z,12.38
2023-10-26T14:04:26.189Z,12.20
2023-10-26T14:06:53.249Z,12.10
2023-10-26T14:09:20.325Z,12.02
2023-10-26T14:11:47.266Z,11.95
2023-10-26T14:14:14.308Z,11.91
2023-10-26T14:16:41.340Z,11.86
2023-10-26T14:19:09.914Z,11.88
2023-10-26T14:21:37.500Z,11.93
2023-10-26T14:24:04.986Z,11.94
2023-10-26T14:26:32.025Z,11.93
2023-10-26T14:28:59.036Z,11.95
2023-10-26T14:31:26.199Z,11.92
2023-10-26T14:33:53.924Z,11.85
2023-10-26T14:36:22.307Z,11.85
2023-10-26T14:38:52.560Z,11.88
2023-10-26T14:41:19.997Z,11.92
2023-10-26T14:43:47.952Z,11.93
2023-10-26T14:46:15.298Z,11.92
2023-10-26T14:48:42.419Z,11.91
2023-10-26T14:51:09.626Z,11.83
2023-10-26T14:53:36.616Z,11.78
2023-10-26T14:56:05.272Z,11.72
2023-10-26T14:58:32.661Z,11.67
2023-10-26T15:00:59.810Z,11.62
2023-10-26T15:03:26.859Z,11.58
2023-10-26T15:05:54.848Z,11.58
2023-10-26T15:08:22.005Z,11.55
2023-10-26T15:10:51.114Z,11.52
2023-10-26T15:13:19.784Z,11.50
2023-10-26T15:15:48.716Z,11.52
2023-10-26T15:18:15.733Z,11.53
2023-10-26T15:20:42.797Z,11.53
2023-10-26T15:23:10.270Z,11.54
2023-10-26T15:25:37.540Z,11.53
2023-10-26T15:28:04.819Z,11.53
2023-10-26T15:30:32.113Z,11.50
2023-10-26T15:32:59.667Z,11.46
2023-10-26T15:35:28.819Z,11.41
2023-10-26T15:37:56.182Z,11.36
2023-10-26T15:40:23.394Z,11.32
2023-10-26T15:42:50.743Z,11.28
2023-10-26T15:45:18.036Z,11.24
2023-10-26T15:47:45.193Z,11.22
2023-10-26T15:50:12.383Z,11.17
2023-10-26T15:52:39.505Z,11.14
2023-10-26T15:55:07.171Z,11.09
2023-10-26T15:57:34.451Z,11.04
2023-10-26T16:00:01.706Z,11.00
2023-10-26T16:02:28.805Z,10.94
2023-10-26T16:04:55.824Z,10.90
2023-10-26T16:07:22.839Z,10.86
2023-10-26T16:09:49.946Z,10.83
2023-10-26T16:12:17.135Z,10.80
2023-10-26T16:14:44.490Z,10.77
2023-10-26T16:17:12.517Z,10.74
2023-10-26T16:19:39.526Z,10.71
2023-10-26T16:22:08.885Z,10.65
2023-10-26T16:24:36.243Z,10.64
2023-10-26T16:27:03.774Z,10.61
2023-10-26T16:29:31.761Z,10.61
2023-10-26T16:31:58.799Z,10.60
2023-10-26T16:34:25.814Z,10.57
2023-10-26T16:36:53.413Z,10.54
2023-10-26T16:39:20.510Z,10.52
2023-10-26T16:41:47.518Z,10.51
2023-10-26T16:44:14.766Z,10.51
2023-10-26T16:46:42.098Z,10.51
2023-10-26T16:49:09.162Z,10.52
2023-10-26T16:51:36.296Z,10.52
2023-10-26T16:54:04.684Z,10.51
2023-10-26T16:56:31.830Z,10.50
2023-10-26T16:58:58.834Z,10.50
2023-10-26T17:01:28.643Z,10.49
2023-10-26T17:03:55.820Z,10.46
2023-10-26T17:06:22.843Z,10.43
2023-10-26T17:08:49.922Z,10.44
2023-10-26T17:11:16.899Z,10.41
2023-10-26T17:13:43.870Z,10.41
2023-10-26T17:16:17.040Z,10.41
2023-10-26T17:18:46.598Z,10.40
2023-10-26T17:21:13.687Z,10.41
2023-10-26T17:23:42.586Z,10.41
2023-10-26T17:26:14.524Z,10.43
2023-10-26T17:28:41.998Z,10.40
2023-10-26T17:31:13.846Z,10.39
2023-10-26T17:33:40.951Z,10.38
2023-10-26T17:36:08.047Z,10.38
2023-10-26T17:38:35.183Z,10.39
2023-10-26T17:41:10.375Z,10.39
2023-10-26T17:43:37.916Z,10.37
2023-10-26T17:46:05.292Z,10.38
2023-10-26T17:48:33.775Z,10.37
2023-10-26T17:51:04.374Z,10.37
2023-10-26T17:53:31.389Z,10.40
2023-10-26T17:55:59.929Z,10.41
2023-10-26T17:58:27.992Z,10.40
2023-10-26T18:01:11.581Z,10.41
2023-10-26T18:03:40.773Z,10.40
2023-10-26T18:06:08.560Z,10.41
2023-10-26T18:08:38.448Z,10.42
2023-10-26T18:11:06.061Z,10.39
2023-10-26T18:13:35.333Z,10.38
2023-10-26T18:16:10.541Z,10.36
2023-10-26T18:18:39.378Z,10.31
2023-10-26T18:21:08.921Z,10.30
2023-10-26T18:23:37.901Z,10.28
2023-10-26T18:26:10.398Z,10.29
2023-10-26T18:28:40.143Z,10.27
2023-10-26T18:31:09.946Z,10.26
2023-10-26T18:33:38.071Z,10.24
2023-10-26T18:36:17.477Z,10.24
2023-10-26T18:38:45.345Z,10.25
2023-10-26T18:41:25.353Z,10.25
2023-10-26T18:43:56.782Z,10.23
2023-10-26T18:46:24.816Z,10.20
2023-10-26T18:48:51.942Z,10.19
2023-10-26T18:51:20.358Z,10.17
2023-10-26T18:53:48.488Z,10.16
2023-10-26T18:56:20.153Z,10.16
2023-10-26T18:58:47.133Z,10.17
2023-10-26T19:01:14.207Z,10.17
2023-10-26T19:03:57.440Z,10.16
2023-10-26T19:06:28.476Z,10.18
2023-10-26T19:08:55.604Z,10.18
2023-10-26T19:11:22.653Z,10.20
2023-10-26T19:13:52.732Z,10.23
2023-10-26T19:16:20.236Z,10.24
2023-10-26T19:18:51.647Z,10.23
2023-10-26T19:21:22.491Z,10.23
2023-10-26T19:23:49.889Z,10.24
2023-10-26T19:26:17.064Z,10.26
2023-10-26T19:28:44.101Z,10.28
2023-10-26T19:31:12.862Z,10.28
2023-10-26T19:33:43.109Z,10.30
2023-10-26T19:36:10.671Z,10.32
2023-10-26T19:38:37.701Z,10.31
2023-10-26T19:41:05.090Z,10.30
2023-10-26T19:43:32.151Z,10.31
2023-10-26T19:45:59.167Z,10.32
2023-10-26T19:48:26.205Z,10.33
2023-10-26T19:50:53.376Z,10.35
2023-10-26T19:53:20.612Z,10.38
2023-10-26T19:55:47.609Z,10.38
2023-10-26T19:58:14.603Z,10.37
2023-10-26T20:00:41.715Z,10.36
2023-10-26T20:03:08.881Z,10.31
2023-10-26T20:05:36.144Z,10.23
2023-10-26T20:08:05.594Z,10.22
2023-10-26T20:10:32.686Z,10.18
2023-10-26T20:13:01.653Z,10.14
2023-10-26T20:15:28.720Z,10.10
2023-10-26T20:17:55.752Z,10.05
2023-10-26T20:20:29.130Z,10.02
2023-10-26T20:22:56.226Z,9.95
2023-10-26T20:25:23.228Z,9.93
2023-10-26T20:27:52.331Z,9.92
2023-10-26T20:30:20.171Z,9.89
2023-10-26T20:32:47.146Z,9.91
2023-10-26T20:35:14.195Z,9.90
2023-10-26T20:37:41.248Z,9.88
2023-10-26T20:40:09.065Z,9.88
2023-10-26T20:42:37.930Z,9.89
2023-10-26T20:45:05.633Z,9.91
2023-10-26T20:47:32.701Z,9.91
2023-10-26T20:49:59.706Z,9.91
2023-10-26T20:52:28.258Z,9.91
2023-10-26T20:54:55.409Z,9.92
2023-10-26T20:57:22.438Z,9.92
2023-10-26T20:59:49.963Z,9.93
2023-10-26T21:02:17.067Z,9.93
2023-10-26T21:04:44.111Z,9.97
2023-10-26T21:07:11.128Z,9.98
2023-10-26T21:09:38.162Z,10.00
2023-10-26T21:12:05.399Z,9.99
2023-10-26T21:14:32.536Z,9.99
2023-10-26T21:17:00.197Z,9.97
2023-10-26T21:19:27.218Z,9.94
2023-10-26T21:21:58.441Z,9.94
2023-10-26T21:24:25.707Z,9.96
2023-10-26T21:26:52.723Z,9.98
2023-10-26T21:29:19.744Z,10.01
2023-10-26T21:31:46.753Z,10.00
2023-10-26T21:34:13.837Z,10.00
2023-10-26T21:36:41.262Z,10.02
2023-10-26T21:39:08.306Z,10.01
2023-10-26T21:41:35.361Z,10.00
2023-10-26T21:44:02.422Z,9.98
2023-10-26T21:46:29.506Z,10.00
2023-10-26T21:48:57.089Z,10.00
2023-10-26T21:51:24.169Z,10.02
2023-10-26T21:53:51.165Z,9.99
2023-10-26T21:56:18.157Z,10.01
2023-10-26T21:58:45.604Z,10.01
2023-10-26T22:01:13.478Z,10.00
2023-10-26T22:03:43.117Z,9.99
2023-10-26T22:06:10.505Z,10.01
2023-10-26T22:08:37.640Z,10.02
2023-10-26T22:11:05.531Z,10.04
2023-10-26T22:13:33.011Z,10.04
2023-10-26T22:16:00.105Z,10.06
2023-10-26T22:18:27.095Z,10.03
2023-10-26T22:20:54.121Z,10.00
2023-10-26T22:23:21.128Z,9.99
2023-10-26T22:25:48.084Z,9.98
2023-10-26T22:28:15.167Z,9.97
2023-10-26T22:30:42.405Z,9.96
2023-10-26T22:33:09.464Z,9.98
2023-10-26T22:35:36.396Z,9.99
2023-10-26T22:38:03.379Z,9.98
2023-10-26T22:40:30.926Z,9.95
2023-10-26T22:42:57.955Z,9.93
2023-10-26T22:45:25.164Z,9.90
2023-10-26T22:47:53.593Z,9.87
2023-10-26T22:50:20.634Z,9.85
2023-10-26T22:52:47.747Z,9.84
2023-10-26T22:55:15.396Z,9.81
2023-10-26T22:57:43.419Z,9.83
2023-10-26T23:00:12.085Z,9.81
2023-10-26T23:02:40.017Z,9.78
2023-10-26T23:05:08.797Z,9.78
2023-10-26T23:07:36.108Z,9.73
2023-10-26T23:10:03.387Z,9.71
2023-10-26T23:12:30.380Z,9.68
2023-10-26T23:14:57.314Z,9.63
2023-10-26T23:17:24.381Z,9.60
2023-10-26T23:19:52.653Z,9.57
2023-10-26T23:22:19.702Z,9.50
2023-10-26T23:24:47.677Z,9.47
2023-10-26T23:27:14.761Z,9.43
2023-10-26T23:29:41.862Z,9.44
2023-10-26T23:32:08.949Z,9.46
2023-10-26T23:34:36.121Z,9.47
2023-10-26T23:37:03.363Z,9.47
2023-10-26T23:39:30.633Z,9.50
2023-10-26T23:41:57.585Z,9.53
2023-10-26T23:44:24.561Z,9.54
2023-10-26T23:46:51.572Z,9.57
2023-10-26T23:49:18.629Z,9.57
2023-10-26T23:51:45.646Z,9.59
2023-10-26T23:54:12.645Z,9.62
2023-10-26T23:56:39.688Z,9.61
2023-10-26T23:59:06.851Z,9.67
